sensor_id;sensor_type;location;lat;lon;timestamp;P1;durP1;ratioP1;P2;durP2;ratioP2
5587;SDS011;2816;49.778;9.986;2023-04-25T00:00:48;5.37;;;2.80;;
5587;SDS011;2816;49.778;9.986;2023-04-25T00:03:15;8.07;;;3.10;;
5587;SDS011;2816;49.778;9.986;2023-04-25T00:05:43;6.07;;;2.90;;
5587;SDS011;2816;49.778;9.986;2023-04-25T00:08:11;4.50;;;3.47;;
5587;SDS011;2816;49.778;9.986;2023-04-25T00:10:38;2.80;;;2.60;;
5587;SDS011;2816;49.778;9.986;2023-04-25T00:13:05;3.30;;;3.00;;
5587;SDS011;2816;49.778;9.986;2023-04-25T00:15:34;3.10;;;2.90;;
5587;SDS011;2816;49.778;9.986;2023-04-25T00:18:03;3.13;;;2.70;;
5587;SDS011;2816;49.778;9.986;2023-04-25T00:20:30;4.50;;;3.20;;
5587;SDS011;2816;49.778;9.986;2023-04-25T00:22:57;3.13;;;2.83;;
5587;SDS011;2816;49.778;9.986;2023-04-25T00:25:24;5.67;;;3.10;;
5587;SDS011;2816;49.778;9.986;2023-04-25T00:27:51;3.43;;;3.13;;
5587;SDS011;2816;49.778;9.986;2023-04-25T00:30:18;4.03;;;2.87;;
5587;SDS011;2816;49.778;9.986;2023-04-25T00:32:46;3.20;;;2.90;;
5587;SDS011;2816;49.778;9.986;2023-04-25T00:35:13;4.17;;;3.07;;
5587;SDS011;2816;49.778;9.986;2023-04-25T00:37:40;3.53;;;3.23;;
5587;SDS011;2816;49.778;9.986;2023-04-25T00:40:08;2.50;;;2.30;;
5587;SDS011;2816;49.778;9.986;2023-04-25T00:42:35;2.93;;;2.40;;
5587;SDS011;2816;49.778;9.986;2023-04-25T00:45:04;4.00;;;3.03;;
5587;SDS011;2816;49.778;9.986;2023-04-25T00:47:33;3.53;;;2.63;;
5587;SDS011;2816;49.778;9.986;2023-04-25T00:50:03;3.00;;;2.73;;
5587;SDS011;2816;49.778;9.986;2023-04-25T00:52:31;3.40;;;3.10;;
5587;SDS011;2816;49.778;9.986;2023-04-25T00:54:58;3.97;;;3.30;;
5587;SDS011;2816;49.778;9.986;2023-04-25T00:57:26;6.17;;;3.10;;
5587;SDS011;2816;49.778;9.986;2023-04-25T00:59:53;5.00;;;3.43;;
5587;SDS011;2816;49.778;9.986;2023-04-25T01:02:21;3.17;;;2.93;;
5587;SDS011;2816;49.778;9.986;2023-04-25T01:04:48;3.90;;;3.60;;
5587;SDS011;2816;49.778;9.986;2023-04-25T01:07:16;3.80;;;3.50;;
5587;SDS011;2816;49.778;9.986;2023-04-25T01:09:43;3.83;;;3.43;;
5587;SDS011;2816;49.778;9.986;2023-04-25T01:12:10;5.60;;;3.83;;
5587;SDS011;2816;49.778;9.986;2023-04-25T01:14:38;3.60;;;3.30;;
5587;SDS011;2816;49.778;9.986;2023-04-25T01:17:05;4.80;;;3.60;;
5587;SDS011;2816;49.778;9.986;2023-04-25T01:19:32;4.53;;;3.17;;
5587;SDS011;2816;49.778;9.986;2023-04-25T01:22:01;3.83;;;3.50;;
5587;SDS011;2816;49.778;9.986;2023-04-25T01:24:28;4.47;;;3.37;;
5587;SDS011;2816;49.778;9.986;2023-04-25T01:26:55;5.00;;;3.50;;
5587;SDS011;2816;49.778;9.986;2023-04-25T01:29:23;4.07;;;3.30;;
5587;SDS011;2816;49.778;9.986;2023-04-25T01:31:51;7.30;;;3.87;;
5587;SDS011;2816;49.778;9.986;2023-04-25T01:34:19;3.97;;;3.60;;
5587;SDS011;2816;49.778;9.986;2023-04-25T01:36:46;5.00;;;3.90;;
5587;SDS011;2816;49.778;9.986;2023-04-25T01:39:16;4.47;;;4.07;;
5587;SDS011;2816;49.778;9.986;2023-04-25T01:41:43;4.27;;;3.10;;
5587;SDS011;2816;49.778;9.986;2023-04-25T01:44:11;3.30;;;3.00;;
5587;SDS011;2816;49.778;9.986;2023-04-25T01:46:38;3.60;;;2.90;;
5587;SDS011;2816;49.778;9.986;2023-04-25T01:49:05;2.93;;;2.63;;
5587;SDS011;2816;49.778;9.986;2023-04-25T01:51:32;3.07;;;2.60;;
5587;SDS011;2816;49.778;9.986;2023-04-25T01:54:00;3.10;;;2.60;;
5587;SDS011;2816;49.778;9.986;2023-04-25T01:56:31;2.77;;;2.57;;
5587;SDS011;2816;49.778;9.986;2023-04-25T01:58:58;2.60;;;2.40;;
5587;SDS011;2816;49.778;9.986;2023-04-25T02:01:25;3.80;;;2.33;;
5587;SDS011;2816;49.778;9.986;2023-04-25T02:03:52;2.77;;;2.57;;
5587;SDS011;2816;49.778;9.986;2023-04-25T02:06:19;2.50;;;2.30;;
5587;SDS011;2816;49.778;9.986;2023-04-25T02:08:46;2.40;;;2.23;;
5587;SDS011;2816;49.778;9.986;2023-04-25T02:11:12;4.07;;;2.20;;
5587;SDS011;2816;49.778;9.986;2023-04-25T02:13:41;2.23;;;2.13;;
5587;SDS011;2816;49.778;9.986;2023-04-25T02:16:08;2.40;;;2.13;;
5587;SDS011;2816;49.778;9.986;2023-04-25T02:18:35;2.90;;;2.40;;
5587;SDS011;2816;49.778;9.986;2023-04-25T02:21:02;2.40;;;2.20;;
5587;SDS011;2816;49.778;9.986;2023-04-25T02:23:29;3.10;;;2.40;;
5587;SDS011;2816;49.778;9.986;2023-04-25T02:25:56;2.20;;;1.90;;
5587;SDS011;2816;49.778;9.986;2023-04-25T02:28:23;2.60;;;2.40;;
5587;SDS011;2816;49.778;9.986;2023-04-25T02:30:52;2.67;;;2.47;;
5587;SDS011;2816;49.778;9.986;2023-04-25T02:33:19;2.17;;;2.07;;
5587;SDS011;2816;49.778;9.986;2023-04-25T02:35:47;2.30;;;2.10;;
5587;SDS011;2816;49.778;9.986;2023-04-25T02:38:14;2.10;;;1.90;;
5587;SDS011;2816;49.778;9.986;2023-04-25T02:40:40;2.07;;;1.97;;
5587;SDS011;2816;49.778;9.986;2023-04-25T02:43:07;2.20;;;2.10;;
5587;SDS011;2816;49.778;9.986;2023-04-25T02:45:34;2.40;;;2.17;;
5587;SDS011;2816;49.778;9.986;2023-04-25T02:48:04;6.40;;;1.90;;
5587;SDS011;2816;49.778;9.986;2023-04-25T02:50:31;1.90;;;1.80;;
5587;SDS011;2816;49.778;9.986;2023-04-25T02:52:58;2.00;;;1.90;;
5587;SDS011;2816;49.778;9.986;2023-04-25T02:55:25;3.17;;;2.20;;
5587;SDS011;2816;49.778;9.986;2023-04-25T02:57:52;2.23;;;2.07;;
5587;SDS011;2816;49.778;9.986;2023-04-25T03:00:20;2.00;;;1.90;;
5587;SDS011;2816;49.778;9.986;2023-04-25T03:02:47;2.20;;;2.10;;
5587;SDS011;2816;49.778;9.986;2023-04-25T03:05:16;1.83;;;1.73;;
5587;SDS011;2816;49.778;9.986;2023-04-25T03:07:43;2.30;;;2.17;;
5587;SDS011;2816;49.778;9.986;2023-04-25T03:10:11;2.40;;;2.20;;
5587;SDS011;2816;49.778;9.986;2023-04-25T03:12:38;2.00;;;1.90;;
5587;SDS011;2816;49.778;9.986;2023-04-25T03:15:05;2.30;;;2.10;;
5587;SDS011;2816;49.778;9.986;2023-04-25T03:17:32;2.33;;;2.13;;
5587;SDS011;2816;49.778;9.986;2023-04-25T03:20:00;2.33;;;2.13;;
5587;SDS011;2816;49.778;9.986;2023-04-25T03:22:30;2.93;;;2.23;;
5587;SDS011;2816;49.778;9.986;2023-04-25T03:24:57;2.50;;;2.30;;
5587;SDS011;2816;49.778;9.986;2023-04-25T03:27:24;3.10;;;2.80;;
5587;SDS011;2816;49.778;9.986;2023-04-25T03:29:51;3.30;;;2.30;;
5587;SDS011;2816;49.778;9.986;2023-04-25T03:32:18;4.07;;;2.70;;
5587;SDS011;2816;49.778;9.986;2023-04-25T03:34:45;4.50;;;2.83;;
5587;SDS011;2816;49.778;9.986;2023-04-25T03:37:11;2.70;;;2.50;;
5587;SDS011;2816;49.778;9.986;2023-04-25T03:39:40;2.73;;;2.53;;
5587;SDS011;2816;49.778;9.986;2023-04-25T03:42:07;3.50;;;2.70;;
5587;SDS011;2816;49.778;9.986;2023-04-25T03:44:33;6.17;;;3.20;;
5587;SDS011;2816;49.778;9.986;2023-04-25T03:47:00;3.77;;;3.40;;
5587;SDS011;2816;49.778;9.986;2023-04-25T03:49:27;3.57;;;3.27;;
5587;SDS011;2816;49.778;9.986;2023-04-25T03:51:54;4.17;;;3.77;;
5587;SDS011;2816;49.778;9.986;2023-04-25T03:54:21;4.20;;;3.80;;
5587;SDS011;2816;49.778;9.986;2023-04-25T03:56:49;4.57;;;4.17;;
5587;SDS011;2816;49.778;9.986;2023-04-25T03:59:16;4.30;;;3.90;;
5587;SDS011;2816;49.778;9.986;2023-04-25T04:01:43;4.37;;;3.87;;
5587;SDS011;2816;49.778;9.986;2023-04-25T04:04:10;4.37;;;3.97;;
5587;SDS011;2816;49.778;9.986;2023-04-25T04:06:37;5.10;;;4.00;;
5587;SDS011;2816;49.778;9.986;2023-04-25T04:09:04;4.33;;;3.93;;
5587;SDS011;2816;49.778;9.986;2023-04-25T04:11:34;4.30;;;3.90;;
5587;SDS011;2816;49.778;9.986;2023-04-25T04:14:04;12.73;;;3.13;;
5587;SDS011;2816;49.778;9.986;2023-04-25T04:16:31;4.10;;;3.70;;
5587;SDS011;2816;49.778;9.986;2023-04-25T04:18:58;7.00;;;4.00;;
5587;SDS011;2816;49.778;9.986;2023-04-25T04:21:25;4.50;;;4.10;;
5587;SDS011;2816;49.778;9.986;2023-04-25T04:23:52;4.23;;;3.83;;
5587;SDS011;2816;49.778;9.986;2023-04-25T04:26:20;5.23;;;4.30;;
5587;SDS011;2816;49.778;9.986;2023-04-25T04:28:49;5.20;;;3.93;;
5587;SDS011;2816;49.778;9.986;2023-04-25T04:31:18;3.93;;;3.60;;
5587;SDS011;2816;49.778;9.986;2023-04-25T04:33:45;4.10;;;3.80;;
5587;SDS011;2816;49.778;9.986;2023-04-25T04:36:12;4.37;;;4.00;;
5587;SDS011;2816;49.778;9.986;2023-04-25T04:38:39;6.53;;;4.63;;
5587;SDS011;2816;49.778;9.986;2023-04-25T04:41:07;4.63;;;4.23;;
5587;SDS011;2816;49.778;9.986;2023-04-25T04:43:34;5.57;;;4.60;;
5587;SDS011;2816;49.778;9.986;2023-04-25T04:46:01;5.93;;;4.97;;
5587;SDS011;2816;49.778;9.986;2023-04-25T04:48:30;8.47;;;4.53;;
5587;SDS011;2816;49.778;9.986;2023-04-25T04:50:59;6.50;;;5.13;;
5587;SDS011;2816;49.778;9.986;2023-04-25T04:53:26;6.50;;;5.20;;
5587;SDS011;2816;49.778;9.986;2023-04-25T04:55:53;5.77;;;5.17;;
5587;SDS011;2816;49.778;9.986;2023-04-25T04:58:20;12.87;;;4.80;;
5587;SDS011;2816;49.778;9.986;2023-04-25T05:00:47;5.73;;;5.13;;
5587;SDS011;2816;49.778;9.986;2023-04-25T05:03:14;6.23;;;5.40;;
5587;SDS011;2816;49.778;9.986;2023-04-25T05:05:42;7.27;;;5.30;;
5587;SDS011;2816;49.778;9.986;2023-04-25T05:08:10;6.80;;;5.03;;
5587;SDS011;2816;49.778;9.986;2023-04-25T05:10:37;6.40;;;4.80;;
5587;SDS011;2816;49.778;9.986;2023-04-25T05:13:04;6.10;;;5.50;;
5587;SDS011;2816;49.778;9.986;2023-04-25T05:15:31;5.80;;;5.20;;
5587;SDS011;2816;49.778;9.986;2023-04-25T05:17:58;10.20;;;5.63;;
5587;SDS011;2816;49.778;9.986;2023-04-25T05:20:25;7.80;;;6.17;;
5587;SDS011;2816;49.778;9.986;2023-04-25T05:22:53;6.83;;;5.93;;
5587;SDS011;2816;49.778;9.986;2023-04-25T05:25:21;10.40;;;5.80;;
5587;SDS011;2816;49.778;9.986;2023-04-25T05:27:48;6.60;;;5.60;;
5587;SDS011;2816;49.778;9.986;2023-04-25T05:30:16;6.50;;;5.27;;
5587;SDS011;2816;49.778;9.986;2023-04-25T05:32:43;6.87;;;5.60;;
5587;SDS011;2816;49.778;9.986;2023-04-25T05:35:10;7.63;;;5.83;;
5587;SDS011;2816;49.778;9.986;2023-04-25T05:37:37;8.40;;;6.33;;
5587;SDS011;2816;49.778;9.986;2023-04-25T05:40:06;9.60;;;6.80;;
5587;SDS011;2816;49.778;9.986;2023-04-25T05:42:34;7.03;;;5.83;;
5587;SDS011;2816;49.778;9.986;2023-04-25T05:45:01;7.33;;;5.90;;
5587;SDS011;2816;49.778;9.986;2023-04-25T05:47:29;7.60;;;5.13;;
5587;SDS011;2816;49.778;9.986;2023-04-25T05:49:56;8.27;;;6.30;;
5587;SDS011;2816;49.778;9.986;2023-04-25T05:52:23;6.73;;;6.13;;
5587;SDS011;2816;49.778;9.986;2023-04-25T05:54:50;8.30;;;6.90;;
5587;SDS011;2816;49.778;9.986;2023-04-25T05:57:22;9.60;;;6.70;;
5587;SDS011;2816;49.778;9.986;2023-04-25T05:59:51;9.83;;;7.23;;
5587;SDS011;2816;49.778;9.986;2023-04-25T06:02:19;6.40;;;5.80;;
5587;SDS011;2816;49.778;9.986;2023-04-25T06:04:47;12.17;;;7.03;;
5587;SDS011;2816;49.778;9.986;2023-04-25T06:07:14;7.67;;;6.07;;
5587;SDS011;2816;49.778;9.986;2023-04-25T06:09:41;9.47;;;7.23;;
5587;SDS011;2816;49.778;9.986;2023-04-25T06:12:08;8.87;;;6.97;;
5587;SDS011;2816;49.778;9.986;2023-04-25T06:14:36;8.20;;;6.67;;
5587;SDS011;2816;49.778;9.986;2023-04-25T06:17:03;9.00;;;6.80;;
5587;SDS011;2816;49.778;9.986;2023-04-25T06:19:33;7.60;;;6.17;;
5587;SDS011;2816;49.778;9.986;2023-04-25T06:22:01;10.87;;;6.93;;
5587;SDS011;2816;49.778;9.986;2023-04-25T06:24:28;9.13;;;7.10;;
5587;SDS011;2816;49.778;9.986;2023-04-25T06:26:55;11.23;;;6.17;;
5587;SDS011;2816;49.778;9.986;2023-04-25T06:29:22;11.17;;;7.00;;
5587;SDS011;2816;49.778;9.986;2023-04-25T06:31:50;10.27;;;6.40;;
5587;SDS011;2816;49.778;9.986;2023-04-25T06:34:17;9.20;;;6.97;;
5587;SDS011;2816;49.778;9.986;2023-04-25T06:36:44;9.90;;;6.80;;
5587;SDS011;2816;49.778;9.986;2023-04-25T06:39:11;12.53;;;6.70;;
5587;SDS011;2816;49.778;9.986;2023-04-25T06:41:38;8.20;;;7.07;;
5587;SDS011;2816;49.778;9.986;2023-04-25T06:44:05;11.67;;;7.17;;
5587;SDS011;2816;49.778;9.986;2023-04-25T06:46:31;11.33;;;6.40;;
5587;SDS011;2816;49.778;9.986;2023-04-25T06:49:00;16.00;;;7.60;;
5587;SDS011;2816;49.778;9.986;2023-04-25T06:51:27;8.13;;;6.00;;
5587;SDS011;2816;49.778;9.986;2023-04-25T06:53:55;10.07;;;7.00;;
5587;SDS011;2816;49.778;9.986;2023-04-25T06:56:22;9.00;;;6.50;;
5587;SDS011;2816;49.778;9.986;2023-04-25T06:58:49;8.43;;;6.47;;
5587;SDS011;2816;49.778;9.986;2023-04-25T07:01:16;7.73;;;5.43;;
5587;SDS011;2816;49.778;9.986;2023-04-25T07:03:43;6.83;;;6.07;;
5587;SDS011;2816;49.778;9.986;2023-04-25T07:06:11;8.93;;;6.10;;
5587;SDS011;2816;49.778;9.986;2023-04-25T07:08:38;10.93;;;5.50;;
5587;SDS011;2816;49.778;9.986;2023-04-25T07:11:05;11.80;;;6.17;;
5587;SDS011;2816;49.778;9.986;2023-04-25T07:13:32;7.27;;;5.07;;
5587;SDS011;2816;49.778;9.986;2023-04-25T07:15:59;9.07;;;5.47;;
5587;SDS011;2816;49.778;9.986;2023-04-25T07:18:26;9.10;;;4.87;;
5587;SDS011;2816;49.778;9.986;2023-04-25T07:20:53;17.00;;;5.47;;
5587;SDS011;2816;49.778;9.986;2023-04-25T07:23:21;11.73;;;5.60;;
5587;SDS011;2816;49.778;9.986;2023-04-25T07:25:48;8.43;;;5.40;;
5587;SDS011;2816;49.778;9.986;2023-04-25T07:28:15;6.83;;;5.13;;
5587;SDS011;2816;49.778;9.986;2023-04-25T07:30:42;11.87;;;5.60;;
5587;SDS011;2816;49.778;9.986;2023-04-25T07:33:09;8.50;;;4.97;;
5587;SDS011;2816;49.778;9.986;2023-04-25T07:35:36;7.57;;;5.50;;
5587;SDS011;2816;49.778;9.986;2023-04-25T07:38:03;9.67;;;6.53;;
5587;SDS011;2816;49.778;9.986;2023-04-25T07:40:33;8.30;;;6.07;;
5587;SDS011;2816;49.778;9.986;2023-04-25T07:43:00;12.33;;;6.03;;
5587;SDS011;2816;49.778;9.986;2023-04-25T07:45:27;13.43;;;5.90;;
5587;SDS011;2816;49.778;9.986;2023-04-25T07:47:54;11.87;;;5.73;;
5587;SDS011;2816;49.778;9.986;2023-04-25T07:50:21;9.17;;;6.07;;
5587;SDS011;2816;49.778;9.986;2023-04-25T07:52:48;9.57;;;5.10;;
5587;SDS011;2816;49.778;9.986;2023-04-25T07:55:14;10.10;;;5.00;;
5587;SDS011;2816;49.778;9.986;2023-04-25T07:57:43;8.87;;;5.00;;
5587;SDS011;2816;49.778;9.986;2023-04-25T08:00:10;11.60;;;5.00;;
5587;SDS011;2816;49.778;9.986;2023-04-25T08:02:38;11.20;;;4.20;;
5587;SDS011;2816;49.778;9.986;2023-04-25T08:05:05;7.20;;;4.07;;
5587;SDS011;2816;49.778;9.986;2023-04-25T08:07:33;6.90;;;4.40;;
5587;SDS011;2816;49.778;9.986;2023-04-25T08:10:00;5.53;;;3.47;;
5587;SDS011;2816;49.778;9.986;2023-04-25T08:12:27;6.03;;;3.60;;
5587;SDS011;2816;49.778;9.986;2023-04-25T08:14:56;6.67;;;3.90;;
5587;SDS011;2816;49.778;9.986;2023-04-25T08:17:23;9.37;;;4.30;;
5587;SDS011;2816;49.778;9.986;2023-04-25T08:19:50;12.53;;;4.23;;
5587;SDS011;2816;49.778;9.986;2023-04-25T08:22:16;5.77;;;3.30;;
5587;SDS011;2816;49.778;9.986;2023-04-25T08:24:43;4.20;;;2.93;;
5587;SDS011;2816;49.778;9.986;2023-04-25T08:27:10;6.57;;;2.87;;
5587;SDS011;2816;49.778;9.986;2023-04-25T08:29:37;4.30;;;2.57;;
5587;SDS011;2816;49.778;9.986;2023-04-25T08:32:05;5.90;;;2.67;;
5587;SDS011;2816;49.778;9.986;2023-04-25T08:34:32;2.00;;;1.80;;
5587;SDS011;2816;49.778;9.986;2023-04-25T08:36:59;4.03;;;2.10;;
5587;SDS011;2816;49.778;9.986;2023-04-25T08:39:26;2.10;;;1.90;;
5587;SDS011;2816;49.778;9.986;2023-04-25T08:41:53;5.17;;;2.10;;
5587;SDS011;2816;49.778;9.986;2023-04-25T08:44:20;4.33;;;2.00;;
5587;SDS011;2816;49.778;9.986;2023-04-25T08:46:48;5.90;;;2.50;;
5587;SDS011;2816;49.778;9.986;2023-04-25T08:49:17;4.23;;;2.53;;
5587;SDS011;2816;49.778;9.986;2023-04-25T08:51:45;2.57;;;2.00;;
5587;SDS011;2816;49.778;9.986;2023-04-25T08:54:14;2.57;;;2.00;;
5587;SDS011;2816;49.778;9.986;2023-04-25T08:56:43;4.57;;;2.57;;
5587;SDS011;2816;49.778;9.986;2023-04-25T08:59:11;4.53;;;2.47;;
5587;SDS011;2816;49.778;9.986;2023-04-25T09:01:38;7.43;;;2.00;;
5587;SDS011;2816;49.778;9.986;2023-04-25T09:04:06;6.23;;;2.60;;
5587;SDS011;2816;49.778;9.986;2023-04-25T09:06:34;3.07;;;1.70;;
5587;SDS011;2816;49.778;9.986;2023-04-25T09:09:02;6.90;;;2.70;;
5587;SDS011;2816;49.778;9.986;2023-04-25T09:11:30;2.77;;;2.20;;
5587;SDS011;2816;49.778;9.986;2023-04-25T09:14:09;2.70;;;2.10;;
5587;SDS011;2816;49.778;9.986;2023-04-25T09:17:01;3.27;;;2.17;;
5587;SDS011;2816;49.778;9.986;2023-04-25T09:19:30;4.40;;;2.27;;
5587;SDS011;2816;49.778;9.986;2023-04-25T09:22:02;4.33;;;2.50;;
5587;SDS011;2816;49.778;9.986;2023-04-25T09:24:33;2.70;;;2.50;;
5587;SDS011;2816;49.778;9.986;2023-04-25T09:27:04;2.30;;;2.00;;
5587;SDS011;2816;49.778;9.986;2023-04-25T09:29:32;9.93;;;2.70;;
5587;SDS011;2816;49.778;9.986;2023-04-25T09:32:10;2.93;;;1.57;;
5587;SDS011;2816;49.778;9.986;2023-04-25T09:34:42;3.37;;;1.93;;
5587;SDS011;2816;49.778;9.986;2023-04-25T09:37:11;3.80;;;2.07;;
5587;SDS011;2816;49.778;9.986;2023-04-25T09:39:38;2.00;;;1.90;;
5587;SDS011;2816;49.778;9.986;2023-04-25T09:42:05;2.23;;;2.03;;
5587;SDS011;2816;49.778;9.986;2023-04-25T09:44:35;12.53;;;2.30;;
5587;SDS011;2816;49.778;9.986;2023-04-25T09:47:02;4.47;;;2.10;;
5587;SDS011;2816;49.778;9.986;2023-04-25T09:49:29;2.53;;;2.33;;
5587;SDS011;2816;49.778;9.986;2023-04-25T09:51:56;3.63;;;2.10;;
5587;SDS011;2816;49.778;9.986;2023-04-25T09:54:25;6.83;;;2.33;;
5587;SDS011;2816;49.778;9.986;2023-04-25T09:56:53;7.77;;;2.20;;
5587;SDS011;2816;49.778;9.986;2023-04-25T09:59:20;4.50;;;2.30;;
5587;SDS011;2816;49.778;9.986;2023-04-25T10:01:48;2.33;;;2.23;;
5587;SDS011;2816;49.778;9.986;2023-04-25T10:04:18;8.10;;;2.60;;
5587;SDS011;2816;49.778;9.986;2023-04-25T10:06:49;3.53;;;2.60;;
5587;SDS011;2816;49.778;9.986;2023-04-25T10:09:18;2.43;;;2.23;;
5587;SDS011;2816;49.778;9.986;2023-04-25T10:11:48;4.00;;;2.10;;
5587;SDS011;2816;49.778;9.986;2023-04-25T10:14:16;3.63;;;2.40;;
5587;SDS011;2816;49.778;9.986;2023-04-25T10:16:44;2.57;;;1.90;;
5587;SDS011;2816;49.778;9.986;2023-04-25T10:19:13;2.30;;;2.10;;
5587;SDS011;2816;49.778;9.986;2023-04-25T10:21:43;4.90;;;2.10;;
5587;SDS011;2816;49.778;9.986;2023-04-25T10:24:12;6.40;;;2.50;;
5587;SDS011;2816;49.778;9.986;2023-04-25T10:26:40;4.00;;;2.53;;
5587;SDS011;2816;49.778;9.986;2023-04-25T10:29:09;3.20;;;2.50;;
5587;SDS011;2816;49.778;9.986;2023-04-25T10:31:44;4.30;;;2.27;;
5587;SDS011;2816;49.778;9.986;2023-04-25T10:34:11;11.40;;;2.40;;
5587;SDS011;2816;49.778;9.986;2023-04-25T10:36:39;2.70;;;2.13;;
5587;SDS011;2816;49.778;9.986;2023-04-25T10:39:06;2.23;;;2.00;;
5587;SDS011;2816;49.778;9.986;2023-04-25T10:41:45;2.90;;;2.40;;
5587;SDS011;2816;49.778;9.986;2023-04-25T10:44:14;4.80;;;2.13;;
5587;SDS011;2816;49.778;9.986;2023-04-25T10:46:41;6.87;;;2.40;;
5587;SDS011;2816;49.778;9.986;2023-04-25T10:49:15;2.60;;;1.97;;
5587;SDS011;2816;49.778;9.986;2023-04-25T10:52:10;7.03;;;2.73;;
5587;SDS011;2816;49.778;9.986;2023-04-25T10:54:42;4.20;;;2.23;;
5587;SDS011;2816;49.778;9.986;2023-04-25T11:00:16;3.50;;;2.20;;
5587;SDS011;2816;49.778;9.986;2023-04-25T11:02:45;4.57;;;2.23;;
5587;SDS011;2816;49.778;9.986;2023-04-25T11:05:20;7.60;;;2.37;;
5587;SDS011;2816;49.778;9.986;2023-04-25T11:07:50;2.77;;;2.50;;
5587;SDS011;2816;49.778;9.986;2023-04-25T11:10:19;6.33;;;2.27;;
5587;SDS011;2816;49.778;9.986;2023-04-25T11:12:48;2.87;;;1.97;;
5587;SDS011;2816;49.778;9.986;2023-04-25T11:15:16;4.93;;;2.47;;
5587;SDS011;2816;49.778;9.986;2023-04-25T11:17:43;2.93;;;2.13;;
5587;SDS011;2816;49.778;9.986;2023-04-25T11:20:11;2.77;;;2.10;;
5587;SDS011;2816;49.778;9.986;2023-04-25T11:22:39;3.47;;;2.00;;
5587;SDS011;2816;49.778;9.986;2023-04-25T11:25:07;7.43;;;1.83;;
5587;SDS011;2816;49.778;9.986;2023-04-25T11:27:37;5.63;;;2.20;;
5587;SDS011;2816;49.778;9.986;2023-04-25T11:30:12;4.83;;;2.23;;
5587;SDS011;2816;49.778;9.986;2023-04-25T11:32:42;5.70;;;2.20;;
5587;SDS011;2816;49.778;9.986;2023-04-25T11:35:09;4.13;;;2.50;;
5587;SDS011;2816;49.778;9.986;2023-04-25T11:37:36;4.87;;;2.87;;
5587;SDS011;2816;49.778;9.986;2023-04-25T11:40:05;3.03;;;2.27;;
5587;SDS011;2816;49.778;9.986;2023-04-25T11:42:35;3.73;;;2.23;;
5587;SDS011;2816;49.778;9.986;2023-04-25T11:45:03;4.20;;;2.70;;
5587;SDS011;2816;49.778;9.986;2023-04-25T11:47:31;3.83;;;2.67;;
5587;SDS011;2816;49.778;9.986;2023-04-25T11:50:00;4.57;;;2.50;;
5587;SDS011;2816;49.778;9.986;2023-04-25T11:52:37;10.83;;;2.70;;
5587;SDS011;2816;49.778;9.986;2023-04-25T11:55:06;4.10;;;2.43;;
5587;SDS011;2816;49.778;9.986;2023-04-25T11:57:34;5.30;;;2.33;;
5587;SDS011;2816;49.778;9.986;2023-04-25T12:00:05;5.97;;;2.40;;
5587;SDS011;2816;49.778;9.986;2023-04-25T12:02:36;7.70;;;3.27;;
5587;SDS011;2816;49.778;9.986;2023-04-25T12:05:07;3.90;;;2.70;;
5587;SDS011;2816;49.778;9.986;2023-04-25T12:07:34;3.93;;;2.60;;
5587;SDS011;2816;49.778;9.986;2023-04-25T12:10:05;5.33;;;2.60;;
5587;SDS011;2816;49.778;9.986;2023-04-25T12:12:34;2.57;;;2.33;;
5587;SDS011;2816;49.778;9.986;2023-04-25T12:15:11;4.27;;;2.30;;
5587;SDS011;2816;49.778;9.986;2023-04-25T12:17:40;2.23;;;2.00;;
5587;SDS011;2816;49.778;9.986;2023-04-25T12:20:12;4.20;;;2.97;;
5587;SDS011;2816;49.778;9.986;2023-04-25T12:22:40;2.43;;;2.23;;
5587;SDS011;2816;49.778;9.986;2023-04-25T12:25:10;4.40;;;2.50;;
5587;SDS011;2816;49.778;9.986;2023-04-25T12:27:38;4.83;;;2.47;;
5587;SDS011;2816;49.778;9.986;2023-04-25T12:30:08;2.70;;;2.40;;
5587;SDS011;2816;49.778;9.986;2023-04-25T12:32:36;3.77;;;2.70;;
5587;SDS011;2816;49.778;9.986;2023-04-25T12:35:04;3.40;;;2.30;;
5587;SDS011;2816;49.778;9.986;2023-04-25T12:37:33;8.80;;;2.50;;
5587;SDS011;2816;49.778;9.986;2023-04-25T12:40:00;3.90;;;2.63;;
5587;SDS011;2816;49.778;9.986;2023-04-25T12:42:28;3.60;;;2.77;;
5587;SDS011;2816;49.778;9.986;2023-04-25T12:44:55;6.67;;;3.90;;
5587;SDS011;2816;49.778;9.986;2023-04-25T12:47:21;9.43;;;4.90;;
5587;SDS011;2816;49.778;9.986;2023-04-25T12:49:48;4.97;;;3.43;;
5587;SDS011;2816;49.778;9.986;2023-04-25T12:52:15;4.33;;;2.80;;
5587;SDS011;2816;49.778;9.986;2023-04-25T12:54:43;4.10;;;3.10;;
5587;SDS011;2816;49.778;9.986;2023-04-25T12:57:10;8.83;;;4.27;;
5587;SDS011;2816;49.778;9.986;2023-04-25T12:59:37;7.30;;;4.47;;
5587;SDS011;2816;49.778;9.986;2023-04-25T13:02:04;6.43;;;3.73;;
5587;SDS011;2816;49.778;9.986;2023-04-25T13:04:31;5.20;;;3.03;;
5587;SDS011;2816;49.778;9.986;2023-04-25T13:06:58;6.70;;;3.33;;
5587;SDS011;2816;49.778;9.986;2023-04-25T13:09:25;7.10;;;3.33;;
5587;SDS011;2816;49.778;9.986;2023-04-25T13:11:53;4.33;;;3.20;;
5587;SDS011;2816;49.778;9.986;2023-04-25T13:14:20;3.50;;;3.13;;
5587;SDS011;2816;49.778;9.986;2023-04-25T13:16:47;3.10;;;2.60;;
5587;SDS011;2816;49.778;9.986;2023-04-25T13:19:14;4.70;;;3.27;;
5587;SDS011;2816;49.778;9.986;2023-04-25T13:21:41;5.83;;;3.03;;
5587;SDS011;2816;49.778;9.986;2023-04-25T13:24:08;3.60;;;3.30;;
5587;SDS011;2816;49.778;9.986;2023-04-25T13:26:35;6.20;;;3.10;;
5587;SDS011;2816;49.778;9.986;2023-04-25T13:29:03;7.80;;;3.40;;
5587;SDS011;2816;49.778;9.986;2023-04-25T13:31:31;7.40;;;3.50;;
5587;SDS011;2816;49.778;9.986;2023-04-25T13:33:58;6.43;;;3.20;;
5587;SDS011;2816;49.778;9.986;2023-04-25T13:36:24;9.97;;;3.40;;
5587;SDS011;2816;49.778;9.986;2023-04-25T13:38:52;9.13;;;3.67;;
5587;SDS011;2816;49.778;9.986;2023-04-25T13:41:19;8.30;;;3.60;;
5587;SDS011;2816;49.778;9.986;2023-04-25T13:43:46;5.57;;;3.40;;
5587;SDS011;2816;49.778;9.986;2023-04-25T13:46:15;6.60;;;3.17;;
5587;SDS011;2816;49.778;9.986;2023-04-25T13:48:42;4.77;;;3.13;;
5587;SDS011;2816;49.778;9.986;2023-04-25T13:51:12;7.10;;;3.10;;
5587;SDS011;2816;49.778;9.986;2023-04-25T13:53:40;10.07;;;3.50;;
5587;SDS011;2816;49.778;9.986;2023-04-25T13:56:07;4.60;;;3.20;;
5587;SDS011;2816;49.778;9.986;2023-04-25T13:58:34;7.00;;;3.53;;
5587;SDS011;2816;49.778;9.986;2023-04-25T14:01:01;8.73;;;3.27;;
5587;SDS011;2816;49.778;9.986;2023-04-25T14:03:30;3.63;;;3.20;;
5587;SDS011;2816;49.778;9.986;2023-04-25T14:05:57;4.93;;;3.27;;
5587;SDS011;2816;49.778;9.986;2023-04-25T14:08:24;3.83;;;3.00;;
5587;SDS011;2816;49.778;9.986;2023-04-25T14:10:51;4.60;;;3.10;;
5587;SDS011;2816;49.778;9.986;2023-04-25T14:13:17;7.30;;;3.20;;
5587;SDS011;2816;49.778;9.986;2023-04-25T14:15:44;26.30;;;4.47;;
5587;SDS011;2816;49.778;9.986;2023-04-25T14:18:11;5.43;;;3.23;;
5587;SDS011;2816;49.778;9.986;2023-04-25T14:20:39;4.30;;;2.63;;
5587;SDS011;2816;49.778;9.986;2023-04-25T14:23:06;3.67;;;3.00;;
5587;SDS011;2816;49.778;9.986;2023-04-25T14:25:33;9.07;;;2.37;;
5587;SDS011;2816;49.778;9.986;2023-04-25T14:28:01;4.33;;;2.37;;
5587;SDS011;2816;49.778;9.986;2023-04-25T14:30:28;8.70;;;2.37;;
5587;SDS011;2816;49.778;9.986;2023-04-25T14:32:55;6.47;;;3.00;;
5587;SDS011;2816;49.778;9.986;2023-04-25T14:35:22;6.03;;;2.80;;
5587;SDS011;2816;49.778;9.986;2023-04-25T14:37:50;3.00;;;2.10;;
5587;SDS011;2816;49.778;9.986;2023-04-25T14:40:18;3.13;;;2.70;;
5587;SDS011;2816;49.778;9.986;2023-04-25T14:42:48;2.80;;;2.10;;
5587;SDS011;2816;49.778;9.986;2023-04-25T14:45:15;11.33;;;2.67;;
5587;SDS011;2816;49.778;9.986;2023-04-25T14:47:41;5.40;;;2.50;;
5587;SDS011;2816;49.778;9.986;2023-04-25T14:50:09;2.73;;;2.33;;
5587;SDS011;2816;49.778;9.986;2023-04-25T14:52:36;4.70;;;2.37;;
5587;SDS011;2816;49.778;9.986;2023-04-25T14:55:05;3.60;;;2.13;;
5587;SDS011;2816;49.778;9.986;2023-04-25T14:57:32;5.83;;;2.93;;
5587;SDS011;2816;49.778;9.986;2023-04-25T14:59:59;4.47;;;2.50;;
5587;SDS011;2816;49.778;9.986;2023-04-25T15:02:27;2.93;;;2.20;;
5587;SDS011;2816;49.778;9.986;2023-04-25T15:04:54;8.80;;;2.67;;
5587;SDS011;2816;49.778;9.986;2023-04-25T15:07:21;9.90;;;2.73;;
5587;SDS011;2816;49.778;9.986;2023-04-25T15:09:48;6.13;;;2.63;;
5587;SDS011;2816;49.778;9.986;2023-04-25T15:12:17;7.93;;;2.77;;
5587;SDS011;2816;49.778;9.986;2023-04-25T15:14:44;3.50;;;2.10;;
5587;SDS011;2816;49.778;9.986;2023-04-25T15:17:11;3.60;;;2.30;;
5587;SDS011;2816;49.778;9.986;2023-04-25T15:19:39;6.27;;;2.43;;
5587;SDS011;2816;49.778;9.986;2023-04-25T15:22:06;8.33;;;2.47;;